Time;durP1;ratioP1;P1;durP2;ratioP2;P2;SDS_P1;SDS_P2;PMS_P1;PMS_P2;Temp;Humidity;BMP_temperature;BMP_pressure;BME280_temperature;BME280_humidity;BME280_pressure;Samples;Min_cycle;Max_cycle;Signal;HPM_P1;HPM_P2
2020/12/06 00:00:17;;;;;;;35.42;15.00;;;1.30;99.90;;;;;;5023683;28;20539;-66
2020/12/06 00:02:43;;;;;;;31.65;13.88;;;1.30;99.90;;;;;;5024359;28;20083;-66
2020/12/06 00:05:10;;;;;;;34.65;13.93;;;1.30;99.90;;;;;;5025391;28;20145;-67
2020/12/06 00:07:39;;;;;;;38.10;14.18;;;1.20;99.90;;;;;;5023614;28;20132;-67
2020/12/06 00:10:10;;;;;;;37.38;15.73;;;1.30;99.90;;;;;;5023821;28;20059;-66
2020/12/06 00:12:36;;;;;;;;;;;1.20;99.90;;;;;;5022832;28;20044;-67
2020/12/06 00:15:03;;;;;;;34.95;14.10;;;1.20;99.90;;;;;;5023725;28;19913;-66
2020/12/06 00:17:29;;;;;;;45.22;17.98;;;1.30;99.90;;;;;;5022642;28;20688;-66
2020/12/06 00:19:54;;;;;;;41.80;17.55;;;1.20;99.90;;;;;;5023622;28;20051;-67
2020/12/06 00:22:20;;;;;;;40.42;16.92;;;1.00;99.90;;;;;;5023470;28;20040;-66
2020/12/06 00:24:46;;;;;;;38.08;15.48;;;0.90;99.90;;;;;;5017404;28;20029;-66
2020/12/06 00:27:11;;;;;;;36.63;14.75;;;0.80;99.90;;;;;;5016872;28;20051;-66
2020/12/06 00:29:37;;;;;;;35.33;15.70;;;0.70;99.90;;;;;;5016829;28;20587;-67
2020/12/06 00:32:03;;;;;;;40.85;17.58;;;0.50;99.90;;;;;;5022877;28;20045;-67
2020/12/06 00:34:28;;;;;;;46.97;18.42;;;0.60;99.90;;;;;;5017167;28;20025;-66
2020/12/06 00:36:54;;;;;;;46.20;18.45;;;0.60;99.90;;;;;;5026698;28;20443;-66
2020/12/06 00:39:19;;;;;;;44.20;17.42;;;0.50;99.90;;;;;;5016957;28;20029;-67
2020/12/06 00:41:45;;;;;;;37.75;16.95;;;0.50;99.90;;;;;;5023246;28;20103;-66
2020/12/06 00:44:11;;;;;;;39.13;16.42;;;0.50;99.90;;;;;;5017472;28;20079;-66
2020/12/06 00:46:37;;;;;;;40.65;16.27;;;0.40;99.90;;;;;;5021875;28;20141;-66
2020/12/06 00:49:03;;;;;;;35.58;15.00;;;0.40;99.90;;;;;;5023011;28;20124;-66
2020/12/06 00:51:28;;;;;;;43.47;16.92;;;0.40;99.90;;;;;;5022917;28;20037;-67
2020/12/06 00:53:54;;;;;;;36.83;16.00;;;0.20;99.90;;;;;;5020155;28;20044;-66
2020/12/06 00:56:20;;;;;;;39.20;16.55;;;0.30;99.90;;;;;;5025094;28;20029;-67
2020/12/06 00:58:48;;;;;;;40.17;16.15;;;0.30;99.90;;;;;;5019012;28;20479;-66
2020/12/06 01:01:15;;;;;;;33.10;14.52;;;0.40;99.90;;;;;;5019469;28;20026;-66
2020/12/06 01:03:41;;;;;;;35.05;14.02;;;-0.60;99.90;;;;;;5016887;28;20017;-66
2020/12/06 01:06:07;;;;;;;38.70;14.75;;;0.20;99.90;;;;;;5021758;28;20036;-66
2020/12/06 01:08:34;;;;;;;38.33;15.57;;;0.20;99.90;;;;;;5021751;28;20216;-66
2020/12/06 01:11:00;;;;;;;35.78;14.82;;;0.10;99.90;;;;;;5022083;28;20048;-66
2020/12/06 01:13:32;;;;;;;43.75;17.23;;;0.20;99.90;;;;;;5022301;28;20029;-67
2020/12/06 01:15:58;;;;;;;41.75;16.48;;;0.20;99.90;;;;;;5021884;28;20048;-66
2020/12/06 01:18:23;;;;;;;43.45;17.98;;;0.40;99.90;;;;;;5021507;28;20026;-66
2020/12/06 01:20:49;;;;;;;41.88;17.17;;;0.50;99.90;;;;;;5003486;28;20116;-66
2020/12/06 01:23:15;;;;;;;43.38;16.95;;;0.50;99.90;;;;;;5008493;28;20014;-67
2020/12/06 01:25:42;;;;;;;41.72;17.30;;;0.50;99.90;;;;;;5013779;28;20037;-67
2020/12/06 01:28:08;;;;;;;37.95;16.23;;;0.40;99.90;;;;;;5011150;28;20125;-66
2020/12/06 01:30:33;;;;;;;38.88;16.23;;;0.30;99.90;;;;;;5014913;28;20033;-66
2020/12/06 01:32:59;;;;;;;39.25;16.23;;;0.20;99.90;;;;;;5016755;28;20501;-66
2020/12/06 01:35:24;;;;;;;36.65;15.52;;;0.20;99.90;;;;;;5018640;28;20037;-66
2020/12/06 01:37:50;;;;;;;37.10;15.18;;;0.30;99.90;;;;;;5020209;28;20025;-66
2020/12/06 01:40:16;;;;;;;42.65;18.65;;;0.50;99.90;;;;;;5013078;28;20033;-66
2020/12/06 01:42:41;;;;;;;47.63;18.52;;;0.60;99.90;;;;;;5018768;28;20041;-68
2020/12/06 01:45:07;;;;;;;45.15;17.75;;;0.50;99.90;;;;;;5007249;28;20025;-66
2020/12/06 01:47:33;;;;;;;49.72;19.33;;;0.50;99.90;;;;;;5012665;28;20053;-66
2020/12/06 01:49:58;;;;;;;52.50;19.23;;;0.50;99.90;;;;;;5011177;28;20084;-66
2020/12/06 01:52:29;;;;;;;47.80;18.50;;;0.40;99.90;;;;;;5016790;28;20044;-66
2020/12/06 01:54:55;;;;;;;44.67;17.83;;;0.40;99.90;;;;;;5011404;28;20802;-66
2020/12/06 01:57:21;;;;;;;44.72;18.48;;;0.40;99.90;;;;;;5008734;28;20476;-66
2020/12/06 01:59:47;;;;;;;46.20;17.92;;;0.30;99.90;;;;;;5017778;28;20037;-67
2020/12/06 02:02:15;;;;;;;52.78;19.52;;;0.30;99.90;;;;;;5012472;28;20049;-66
2020/12/06 02:04:41;;;;;;;49.85;18.70;;;0.20;99.90;;;;;;5016554;28;20024;-66
2020/12/06 02:07:07;;;;;;;46.65;17.80;;;0.20;99.90;;;;;;5010086;28;20397;-66
2020/12/06 02:09:32;;;;;;;45.78;18.00;;;0.10;99.90;;;;;;5020705;28;20021;-67
2020/12/06 02:11:59;;;;;;;43.88;17.20;;;0.10;99.90;;;;;;5015408;28;20030;-66
2020/12/06 02:14:25;;;;;;;46.38;17.63;;;0.10;99.90;;;;;;5020339;28;20484;-66
2020/12/06 02:16:56;;;;;;;47.90;18.58;;;0.20;99.90;;;;;;5022296;28;20049;-66
2020/12/06 02:19:22;;;;;;;47.50;18.20;;;0.10;99.90;;;;;;5018435;28;20039;-67
2020/12/06 02:21:48;;;;;;;44.13;17.85;;;0.10;99.90;;;;;;5016359;28;20257;-66
2020/12/06 02:24:15;;;;;;;42.38;17.45;;;0.10;99.90;;;;;;5016194;28;20049;-66
2020/12/06 02:26:47;;;;;;;46.70;17.17;;;0.00;99.90;;;;;;5012457;28;20021;-66
2020/12/06 02:29:13;;;;;;;42.05;17.13;;;0.10;99.90;;;;;;5017355;28;20029;-66
2020/12/06 02:31:39;;;;;;;40.05;17.10;;;0.40;99.90;;;;;;5012159;28;20080;-66
2020/12/06 02:34:06;;;;;;;44.22;16.17;;;0.50;99.90;;;;;;5017526;28;20052;-68
2020/12/06 02:36:32;;;;;;;46.85;18.77;;;0.80;99.90;;;;;;4995537;28;20547;-66
2020/12/06 02:38:58;;;;;;;46.22;17.92;;;0.80;99.90;;;;;;5016419;28;20028;-66
2020/12/06 02:41:45;;;;;;;45.85;17.50;;;0.80;99.90;;;;;;5021224;28;20374;-66
2020/12/06 02:44:13;;;;;;;49.17;20.15;;;0.70;99.90;;;;;;5009583;28;20573;-66
2020/12/06 02:46:39;;;;;;;47.60;19.17;;;0.70;99.90;;;;;;5017401;28;20108;-66
2020/12/06 02:49:06;;;;;;;51.03;20.23;;;0.80;99.90;;;;;;5013155;28;20038;-66
2020/12/06 02:51:32;;;;;;;51.67;20.70;;;0.80;99.90;;;;;;5019878;28;20057;-67
2020/12/06 02:53:58;;;;;;;49.65;19.77;;;0.80;99.90;;;;;;5019822;28;20030;-66
2020/12/06 02:56:24;;;;;;;47.60;18.75;;;0.80;99.90;;;;;;5024644;28;20047;-66
2020/12/06 02:58:51;;;;;;;49.40;19.95;;;1.20;99.90;;;;;;5016956;28;20111;-67
2020/12/06 03:01:18;;;;;;;49.10;19.75;;;0.80;99.90;;;;;;5017464;28;20033;-66
2020/12/06 03:03:44;;;;;;;45.22;18.90;;;0.90;99.90;;;;;;5019411;28;20033;-67
2020/12/06 03:06:10;;;;;;;50.30;19.90;;;0.90;99.90;;;;;;5026703;28;20025;-66
2020/12/06 03:08:38;;;;;;;51.65;19.13;;;0.90;99.90;;;;;;5025177;28;20025;-66
2020/12/06 03:11:07;;;;;;;42.65;18.25;;;1.90;99.90;;;;;;5023112;28;20034;-66
2020/12/06 03:13:34;;;;;;;45.65;18.55;;;1.10;99.90;;;;;;5023118;28;20497;-67
2020/12/06 03:16:01;;;;;;;39.42;17.95;;;1.20;99.90;;;;;;5022989;28;20084;-66
2020/12/06 03:18:26;;;;;;;49.13;19.02;;;1.10;99.90;;;;;;5019416;28;20505;-66
2020/12/06 03:20:52;;;;;;;45.67;17.63;;;1.10;99.90;;;;;;5018031;28;20056;-66
2020/12/06 03:23:17;;;;;;;42.35;17.73;;;1.10;99.90;;;;;;5024949;28;20033;-66
2020/12/06 03:25:43;;;;;;;39.17;16.92;;;1.10;99.90;;;;;;5024396;28;20025;-67
2020/12/06 03:28:09;;;;;;;41.65;17.35;;;1.10;99.90;;;;;;5004082;28;20033;-66
2020/12/06 03:30:34;;;;;;;47.88;16.75;;;1.20;99.90;;;;;;5024353;28;20033;-67
2020/12/06 03:33:00;;;;;;;43.03;19.40;;;1.10;99.90;;;;;;5019977;28;20040;-66
2020/12/06 03:35:26;;;;;;;43.80;17.77;;;1.20;99.90;;;;;;5026017;28;20060;-66
2020/12/06 03:37:51;;;;;;;43.70;17.55;;;1.20;99.90;;;;;;5024780;28;20703;-66
2020/12/06 03:40:17;;;;;;;42.42;16.92;;;1.20;99.90;;;;;;5025421;28;20026;-66
2020/12/06 03:42:42;;;;;;;39.75;17.92;;;1.30;99.90;;;;;;5018821;28;20034;-66
2020/12/06 03:45:08;;;;;;;44.65;18.65;;;1.30;99.90;;;;;;5022593;28;20064;-67
2020/12/06 03:47:34;;;;;;;46.20;18.48;;;1.30;99.90;;;;;;5024962;28;20485;-67
2020/12/06 03:50:00;;;;;;;43.13;18.65;;;1.40;99.90;;;;;;5022579;28;20040;-66
2020/12/06 03:52:25;;;;;;;42.28;17.70;;;1.60;99.90;;;;;;5005674;28;20652;-66
2020/12/06 03:54:51;;;;;;;44.15;17.60;;;1.50;99.90;;;;;;5017852;28;20473;-66
2020/12/06 03:57:16;;;;;;;42.10;18.63;;;1.30;99.90;;;;;;5023615;28;20282;-67
2020/12/06 03:59:42;;;;;;;41.30;17.65;;;1.20;99.90;;;;;;5022904;28;20645;-67
2020/12/06 04:02:08;;;;;;;45.88;19.10;;;1.40;99.90;;;;;;5023002;28;20065;-66
2020/12/06 04:04:34;;;;;;;48.60;19.58;;;1.20;99.90;;;;;;5024762;28;20037;-67
2020/12/06 04:06:59;;;;;;;43.75;17.88;;;1.90;99.90;;;;;;5024495;28;20049;-66
2020/12/06 04:09:25;;;;;;;42.25;17.92;;;1.40;99.90;;;;;;5024597;28;20018;-67
2020/12/06 04:11:51;;;;;;;39.33;17.67;;;1.40;99.90;;;;;;5024810;28;20121;-67
2020/12/06 04:14:16;;;;;;;44.90;17.42;;;1.30;99.90;;;;;;5008569;28;20038;-67
2020/12/06 04:16:42;;;;;;;41.17;18.00;;;1.30;99.90;;;;;;5027808;28;20040;-67
2020/12/06 04:19:07;;;;;;;39.10;17.67;;;1.40;99.90;;;;;;5023800;28;20477;-66
2020/12/06 04:21:33;;;;;;;44.13;17.98;;;1.30;99.90;;;;;;5025902;28;20070;-67
2020/12/06 04:23:59;;;;;;;47.17;20.38;;;1.20;99.90;;;;;;5022049;28;20075;-67
2020/12/06 04:26:24;;;;;;;43.88;18.55;;;1.20;99.90;;;;;;5025926;28;20077;-66
2020/12/06 04:28:50;;;;;;;42.83;18.67;;;1.20;99.90;;;;;;5022204;28;20528;-67
2020/12/06 04:31:16;;;;;;;45.85;19.45;;;1.20;99.90;;;;;;5010996;28;20037;-66
2020/12/06 04:33:41;;;;;;;40.13;17.42;;;1.30;99.90;;;;;;5008293;28;20037;-67
2020/12/06 04:36:07;;;;;;;47.20;18.50;;;1.20;99.90;;;;;;5016226;28;20428;-66
2020/12/06 04:38:32;;;;;;;41.50;18.30;;;1.20;99.90;;;;;;4980051;28;20513;-66
2020/12/06 04:40:58;;;;;;;47.22;18.27;;;1.40;99.90;;;;;;5019311;28;20029;-66
2020/12/06 04:43:26;;;;;;;42.50;18.80;;;1.50;99.90;;;;;;5014469;28;20682;-67
2020/12/06 04:45:52;;;;;;;44.50;17.52;;;1.50;99.90;;;;;;5012609;28;20061;-66
2020/12/06 04:48:30;;;;;;;44.03;18.08;;;1.40;99.90;;;;;;5011405;28;20100;-66
2020/12/06 04:51:03;;;;;;;41.05;16.98;;;1.50;99.90;;;;;;5014197;28;20108;-66
2020/12/06 04:53:39;;;;;;;44.88;19.08;;;1.50;99.90;;;;;;5011504;28;20421;-67
2020/12/06 04:56:11;;;;;;;50.20;19.60;;;1.40;99.90;;;;;;5016343;28;20042;-66
2020/12/06 04:58:41;;;;;;;47.20;19.17;;;1.40;99.90;;;;;;5011712;28;20033;-67
2020/12/06 05:01:08;;;;;;;47.15;20.77;;;1.40;99.90;;;;;;5014536;28;20045;-66
2020/12/06 05:03:36;;;;;;;49.28;19.50;;;1.40;99.90;;;;;;5010636;28;20036;-67
2020/12/06 05:06:04;;;;;;;47.58;19.98;;;1.40;99.90;;;;;;5006746;28;20040;-66
2020/12/06 05:08:33;;;;;;;50.65;20.80;;;1.40;99.90;;;;;;5016073;28;20509;-67
2020/12/06 05:10:59;;;;;;;44.97;19.37;;;1.40;99.90;;;;;;5021520;28;20032;-66
2020/12/06 05:13:25;;;;;;;43.92;18.98;;;1.60;99.90;;;;;;5024840;28;20021;-66
2020/12/06 05:15:53;;;;;;;45.97;17.90;;;1.60;99.90;;;;;;5012073;28;20045;-66
2020/12/06 05:18:18;;;;;;;45.83;18.60;;;1.70;99.90;;;;;;5022556;28;20028;-66
2020/12/06 05:20:45;;;;;;;43.05;18.70;;;1.80;99.90;;;;;;5021413;28;20517;-67
2020/12/06 05:23:12;;;;;;;46.20;18.65;;;1.80;99.90;;;;;;5024005;28;20040;-67
2020/12/06 05:25:38;;;;;;;42.95;17.23;;;1.70;99.90;;;;;;5017401;28;20037;-67
2020/12/06 05:28:04;;;;;;;43.63;18.13;;;1.70;99.90;;;;;;5014613;28;20029;-66
2020/12/06 05:30:30;;;;;;;41.17;19.20;;;1.80;99.90;;;;;;5016665;28;20028;-66
2020/12/06 05:32:57;;;;;;;44.38;17.90;;;1.70;99.90;;;;;;5016196;28;20024;-66
2020/12/06 05:35:23;;;;;;;47.30;19.13;;;1.60;99.90;;;;;;5016054;28;20176;-66
2020/12/06 05:37:49;;;;;;;45.90;20.13;;;1.50;99.90;;;;;;5020129;28;20116;-66
2020/12/06 05:40:19;;;;;;;41.78;18.08;;;1.50;99.90;;;;;;5014341;28;20042;-66
2020/12/06 05:42:46;;;;;;;47.30;18.50;;;1.60;99.90;;;;;;5018060;28;20065;-67
2020/12/06 05:45:12;;;;;;;50.17;20.35;;;1.50;99.90;;;;;;5013406;28;20058;-66
2020/12/06 05:47:39;;;;;;;51.75;20.90;;;1.50;99.90;;;;;;5024229;28;20136;-66
2020/12/06 05:50:06;;;;;;;45.70;19.27;;;1.50;99.90;;;;;;5014643;28;20153;-66
2020/12/06 05:52:34;;;;;;;52.30;21.15;;;1.60;99.90;;;;;;5016495;28;20025;-66
2020/12/06 05:55:01;;;;;;;51.53;20.88;;;1.50;99.90;;;;;;5015384;28;20029;-67
2020/12/06 05:57:28;;;;;;;47.65;19.60;;;1.50;99.90;;;;;;5014860;28;20521;-66
2020/12/06 05:59:55;;;;;;;50.00;21.17;;;1.60;99.90;;;;;;5016351;28;20018;-66
2020/12/06 06:02:25;;;;;;;50.58;20.58;;;1.50;99.90;;;;;;5011740;28;20427;-66
2020/12/06 06:04:52;;;;;;;54.28;21.52;;;1.60;99.90;;;;;;5020244;28;20108;-66
2020/12/06 06:07:23;;;;;;;53.13;21.27;;;1.70;99.90;;;;;;5019025;28;20163;-66
2020/12/06 06:10:06;;;;;;;49.50;19.63;;;1.50;99.90;;;;;;5023239;28;20076;-67
2020/12/06 06:12:41;;;;;;;57.28;21.92;;;1.70;99.90;;;;;;5020093;28;20022;-66
2020/12/06 06:15:07;;;;;;;61.38;21.52;;;1.70;99.90;;;;;;5021527;28;20044;-66
2020/12/06 06:17:33;;;;;;;59.10;22.92;;;1.80;99.90;;;;;;5024616;28;20041;-66
2020/12/06 06:19:58;;;;;;;52.50;19.60;;;1.70;99.90;;;;;;5010007;28;20328;-66
2020/12/06 06:22:34;;;;;;;54.25;21.98;;;1.70;99.90;;;;;;5016310;28;20035;-67
2020/12/06 06:25:01;;;;;;;51.25;21.42;;;1.80;99.90;;;;;;5020247;28;20352;-67
2020/12/06 06:27:41;;;;;;;55.30;22.42;;;1.90;99.90;;;;;;5018793;28;20021;-67
2020/12/06 06:30:08;;;;;;;;;;;2.00;99.90;;;;;;5021224;28;20057;-67
2020/12/06 06:32:35;;;;;;;54.95;20.67;;;1.90;99.90;;;;;;5017490;28;20655;-67
2020/12/06 06:35:02;;;;;;;57.85;23.60;;;1.80;99.90;;;;;;5011041;28;20353;-67
2020/12/06 06:37:32;;;;;;;55.78;21.73;;;1.70;99.90;;;;;;5013205;28;20068;-67
2020/12/06 06:40:04;;;;;;;54.35;23.10;;;1.70;99.90;;;;;;4994677;28;20548;-67
2020/12/06 06:42:31;;;;;;;53.80;22.77;;;1.80;99.90;;;;;;5016731;28;20039;-67
2020/12/06 06:45:07;;;;;;;61.55;25.55;;;1.80;99.90;;;;;;5013369;28;20033;-68
2020/12/06 06:47:36;;;;;;;59.53;25.50;;;1.70;99.90;;;;;;5012078;28;20099;-68
2020/12/06 06:50:02;;;;;;;60.45;23.65;;;1.70;99.90;;;;;;5015454;28;20120;-68
2020/12/06 06:52:29;;;;;;;65.25;25.10;;;1.80;99.90;;;;;;5017703;28;20029;-68
2020/12/06 06:54:57;;;;;;;64.53;24.75;;;1.80;99.90;;;;;;5015239;28;20101;-68
2020/12/06 06:57:24;;;;;;;64.97;23.75;;;1.70;99.90;;;;;;5013492;28;20084;-68
2020/12/06 06:59:52;;;;;;;67.72;25.95;;;1.90;99.90;;;;;;5020002;28;20040;-69
2020/12/06 07:02:19;;;;;;;69.38;26.23;;;1.90;99.90;;;;;;5021505;28;20040;-69
2020/12/06 07:04:47;;;;;;;73.97;25.95;;;1.90;99.90;;;;;;5013954;28;20728;-69
2020/12/06 07:07:12;;;;;;;69.55;23.80;;;1.90;99.90;;;;;;5022562;28;20723;-69
2020/12/06 07:09:38;;;;;;;68.97;27.73;;;2.00;99.90;;;;;;5023181;28;20104;-69
2020/12/06 07:12:04;;;;;;;74.82;26.48;;;2.00;99.90;;;;;;5018498;28;20037;-70
2020/12/06 07:14:29;;;;;;;71.55;28.63;;;2.00;99.90;;;;;;5006402;28;20034;-70
2020/12/06 07:16:58;;;;;;;72.50;26.75;;;2.00;99.90;;;;;;5017048;28;20049;-69
2020/12/06 07:19:24;;;;;;;68.07;26.55;;;2.00;99.90;;;;;;5024101;28;20036;-69
2020/12/06 07:21:51;;;;;;;69.32;26.15;;;2.20;99.90;;;;;;5026377;28;20033;-69
2020/12/06 07:24:18;;;;;;;69.22;28.33;;;2.30;99.90;;;;;;5026191;28;20034;-72
2020/12/06 07:26:46;;;;;;;72.45;27.00;;;2.20;99.90;;;;;;5026106;28;20035;-70
2020/12/06 07:29:12;;;;;;;66.78;26.83;;;2.10;99.90;;;;;;5026443;28;20048;-69
2020/12/06 07:31:39;;;;;;;79.70;27.85;;;1.90;99.90;;;;;;5026413;28;20477;-70
2020/12/06 07:34:06;;;;;;;76.00;27.58;;;1.90;99.90;;;;;;5025261;28;20033;-70
2020/12/06 07:36:36;;;;;;;71.43;27.83;;;1.90;99.90;;;;;;5025471;28;20485;-69
2020/12/06 07:39:15;;;;;;;;;;;2.00;99.90;;;;;;5028418;28;20018;-70
2020/12/06 07:41:48;;;;;;;76.90;27.27;;;2.10;99.90;;;;;;5025164;28;19913;-69
2020/12/06 07:44:15;;;;;;;75.15;25.73;;;2.10;99.90;;;;;;5020353;28;20107;-69
2020/12/06 07:46:41;;;;;;;73.05;26.88;;;2.10;99.90;;;;;;5024118;28;20029;-69
2020/12/06 07:49:07;;;;;;;67.85;25.63;;;2.20;99.90;;;;;;5024531;28;20449;-69
2020/12/06 07:51:33;;;;;;;68.80;25.05;;;2.20;99.90;;;;;;5023413;28;20034;-69
2020/12/06 07:54:01;;;;;;;68.95;26.77;;;2.30;99.90;;;;;;5014803;28;20041;-68
2020/12/06 07:56:29;;;;;;;64.97;24.95;;;2.40;99.90;;;;;;5021694;28;20049;-68
2020/12/06 07:59:14;;;;;;;64.43;25.30;;;2.50;99.90;;;;;;5024408;28;20025;-69
2020/12/06 08:01:42;;;;;;;72.97;26.67;;;2.60;99.90;;;;;;4999089;28;20042;-68
2020/12/06 08:04:12;;;;;;;72.72;27.50;;;2.60;99.90;;;;;;5022388;28;20095;-68
2020/12/06 08:06:41;;;;;;;69.95;27.38;;;2.50;99.90;;;;;;5024421;28;20350;-68
2020/12/06 08:09:09;;;;;;;64.45;24.50;;;2.40;99.90;;;;;;5023281;28;20040;-69
2020/12/06 08:11:45;;;;;;;66.70;27.10;;;2.50;99.90;;;;;;5023972;28;20053;-69
2020/12/06 08:14:11;;;;;;;72.18;25.88;;;2.70;99.90;;;;;;5022787;28;20044;-69
2020/12/06 08:16:36;;;;;;;64.25;25.27;;;2.70;99.90;;;;;;5022753;28;20029;-68
2020/12/06 08:19:03;;;;;;;61.58;25.60;;;2.90;99.90;;;;;;5023892;28;20084;-69
2020/12/06 08:21:41;;;;;;;67.35;26.65;;;3.00;99.90;;;;;;5025227;28;20030;-69
2020/12/06 08:24:23;;;;;;;59.83;26.30;;;2.90;99.90;;;;;;5020871;28;20023;-69
2020/12/06 08:26:51;;;;;;;67.80;27.25;;;2.80;99.90;;;;;;5022145;28;20458;-69
2020/12/06 08:29:17;;;;;;;67.68;27.08;;;2.70;99.90;;;;;;5023498;28;20601;-69
2020/12/06 08:31:45;;;;;;;70.65;26.85;;;2.60;99.90;;;;;;5023287;28;20029;-68
2020/12/06 08:34:15;;;;;;;66.88;26.42;;;2.60;99.90;;;;;;5024310;28;20024;-68
2020/12/06 08:36:42;;;;;;;67.97;27.50;;;2.50;99.90;;;;;;5021963;28;20091;-69
2020/12/06 08:39:22;;;;;;;63.72;25.42;;;2.40;99.90;;;;;;5019664;28;20033;-68
2020/12/06 08:41:49;;;;;;;70.45;27.08;;;2.50;99.90;;;;;;5023035;28;20028;-68
2020/12/06 08:44:16;;;;;;;70.47;26.92;;;2.60;99.90;;;;;;5005503;28;20401;-68
2020/12/06 08:46:50;;;;;;;72.63;27.15;;;2.50;99.90;;;;;;5025543;28;20060;-68
2020/12/06 08:49:23;;;;;;;74.38;28.67;;;2.40;99.90;;;;;;5019841;28;20046;-68
2020/12/06 08:51:51;;;;;;;69.70;28.58;;;2.50;99.90;;;;;;5020639;28;20053;-68
2020/12/06 08:54:34;;;;;;;76.60;29.38;;;2.40;99.90;;;;;;5019097;28;20033;-68
2020/12/06 08:57:11;;;;;;;72.82;28.65;;;2.60;99.90;;;;;;5021660;28;20821;-68
2020/12/06 08:59:38;;;;;;;69.50;27.20;;;2.90;99.90;;;;;;5024091;28;20025;-68
2020/12/06 09:02:05;;;;;;;77.25;28.25;;;2.80;99.90;;;;;;5025860;28;20101;-68
2020/12/06 09:04:33;;;;;;;71.97;27.55;;;2.80;99.90;;;;;;5020531;28;20033;-68
2020/12/06 09:06:59;;;;;;;73.38;28.10;;;2.70;99.90;;;;;;5022453;28;20026;-68
2020/12/06 09:09:25;;;;;;;70.30;27.70;;;2.70;99.90;;;;;;5022316;28;20068;-68
2020/12/06 09:11:56;;;;;;;75.85;29.30;;;2.80;99.90;;;;;;5022289;28;20053;-68
2020/12/06 09:14:22;;;;;;;67.93;28.17;;;2.80;99.90;;;;;;5022144;28;20884;-68
2020/12/06 09:16:48;;;;;;;68.90;26.55;;;2.80;99.90;;;;;;5021516;28;20041;-68
2020/12/06 09:19:14;;;;;;;72.78;28.13;;;2.90;99.90;;;;;;5021037;28;20103;-67
2020/12/06 09:21:40;;;;;;;73.07;30.17;;;3.00;99.90;;;;;;5018976;28;20469;-67
2020/12/06 09:24:05;;;;;;;70.00;27.17;;;2.90;99.90;;;;;;5020372;28;20029;-67
2020/12/06 09:26:31;;;;;;;75.25;26.88;;;2.90;99.90;;;;;;5022074;28;20029;-67
2020/12/06 09:28:57;;;;;;;71.43;27.95;;;2.90;99.90;;;;;;5016525;28;20052;-69
2020/12/06 09:31:25;;;;;;;71.35;28.20;;;3.00;99.90;;;;;;5023045;28;20416;-68
2020/12/06 09:33:51;;;;;;;69.35;28.08;;;2.90;99.90;;;;;;5018591;28;20022;-67
2020/12/06 09:36:17;;;;;;;71.97;27.15;;;2.90;99.90;;;;;;5017870;28;20044;-67
2020/12/06 09:38:44;;;;;;;74.13;26.98;;;2.90;99.90;;;;;;5017176;28;20036;-68
2020/12/06 09:41:12;;;;;;;69.03;28.15;;;3.20;99.90;;;;;;5021159;28;20046;-68
2020/12/06 09:43:39;;;;;;;74.30;28.83;;;3.00;99.90;;;;;;5018208;28;20052;-68
2020/12/06 09:46:04;;;;;;;74.00;28.80;;;3.20;99.90;;;;;;5019069;28;20036;-68
2020/12/06 09:48:30;;;;;;;67.30;27.20;;;3.30;99.90;;;;;;5020310;28;20045;-67
2020/12/06 09:50:56;;;;;;;66.63;29.27;;;3.40;99.90;;;;;;5018087;28;20087;-67
2020/12/06 09:53:21;;;;;;;66.13;26.58;;;3.50;99.90;;;;;;5015504;28;20056;-67
2020/12/06 09:55:47;;;;;;;66.72;26.63;;;3.30;99.90;;;;;;5020751;28;20029;-68
2020/12/06 09:58:13;;;;;;;70.20;27.40;;;3.20;99.90;;;;;;5020933;28;20029;-67
2020/12/06 10:00:39;;;;;;;68.57;27.67;;;3.10;99.90;;;;;;5021718;28;20480;-67
2020/12/06 10:03:04;;;;;;;73.75;27.73;;;3.10;99.90;;;;;;5017567;28;20445;-67
2020/12/06 10:05:30;;;;;;;72.82;27.10;;;3.00;99.90;;;;;;5020912;28;20029;-67
2020/12/06 10:07:56;;;;;;;71.10;29.05;;;3.00;99.90;;;;;;5020564;28;20033;-68
2020/12/06 10:10:21;;;;;;;70.30;27.48;;;3.00;99.90;;;;;;5018383;28;20061;-68
2020/12/06 10:12:47;;;;;;;74.25;29.40;;;3.10;99.90;;;;;;5016088;28;20117;-68
2020/12/06 10:15:13;;;;;;;70.47;28.98;;;3.00;99.90;;;;;;5022739;28;20588;-68
2020/12/06 10:17:39;;;;;;;72.32;28.15;;;3.00;99.90;;;;;;5021436;28;20044;-67
2020/12/06 10:20:08;;;;;;;79.53;28.23;;;3.10;99.90;;;;;;5019887;28;20100;-68
2020/12/06 10:22:34;;;;;;;81.40;30.88;;;3.10;99.90;;;;;;5018968;28;20041;-66
2020/12/06 10:25:00;;;;;;;75.13;28.13;;;3.10;99.90;;;;;;5015597;28;20628;-68
2020/12/06 10:27:32;;;;;;;74.60;28.45;;;3.30;99.90;;;;;;5019300;28;20208;-67
2020/12/06 10:29:58;;;;;;;74.88;30.27;;;3.30;99.90;;;;;;5002478;28;20449;-68
2020/12/06 10:32:23;;;;;;;72.47;31.20;;;3.20;99.90;;;;;;5011601;28;20033;-67
2020/12/06 10:34:49;;;;;;;80.97;30.67;;;3.20;99.90;;;;;;5012764;28;20056;-68
2020/12/06 10:37:17;;;;;;;82.15;31.73;;;3.10;99.90;;;;;;5010616;28;20042;-68
2020/12/06 10:39:42;;;;;;;81.20;31.13;;;3.10;99.90;;;;;;5019651;28;20025;-69
2020/12/06 10:42:08;;;;;;;83.72;31.45;;;3.40;99.90;;;;;;5019720;28;20030;-69
2020/12/06 10:44:34;;;;;;;90.70;30.67;;;3.10;99.90;;;;;;5019858;28;20030;-69
2020/12/06 10:46:59;;;;;;;88.53;33.97;;;3.10;99.90;;;;;;5020709;28;20017;-69
2020/12/06 10:49:25;;;;;;;81.38;30.85;;;3.20;99.90;;;;;;5016287;28;20049;-69
2020/12/06 10:51:50;;;;;;;84.85;31.13;;;3.10;99.90;;;;;;5013616;28;20048;-69
2020/12/06 10:54:16;;;;;;;86.78;34.08;;;3.20;99.90;;;;;;5018000;28;20087;-69
2020/12/06 10:56:43;;;;;;;92.97;32.53;;;3.10;99.90;;;;;;5020650;28;20091;-70
2020/12/06 10:59:09;;;;;;;95.18;35.97;;;3.20;99.90;;;;;;5021368;28;20367;-71
2020/12/06 11:01:35;;;;;;;80.53;31.45;;;3.10;99.90;;;;;;5020048;28;20072;-71
2020/12/06 11:04:03;;;;;;;103.80;31.83;;;3.30;99.90;;;;;;5022701;28;20030;-72
2020/12/06 11:06:29;;;;;;;80.05;30.83;;;3.30;99.90;;;;;;5016066;28;20898;-73
2020/12/06 11:08:55;;;;;;;84.03;30.63;;;3.40;99.90;;;;;;5014932;28;20443;-73
2020/12/06 11:11:22;;;;;;;83.40;31.75;;;3.50;99.90;;;;;;5020736;28;20472;-73
2020/12/06 11:13:48;;;;;;;79.93;30.65;;;3.50;99.90;;;;;;5023402;28;20021;-74
2020/12/06 11:16:21;;;;;;;79.75;30.85;;;3.60;99.90;;;;;;5020438;28;20034;-74
2020/12/06 11:18:48;;;;;;;74.05;29.75;;;3.60;99.90;;;;;;5022246;28;20053;-75
2020/12/06 11:21:16;;;;;;;68.60;26.73;;;3.60;99.90;;;;;;5022173;28;20027;-75
2020/12/06 11:23:43;;;;;;;79.85;30.45;;;3.90;99.90;;;;;;5022897;28;20029;-75
2020/12/06 11:26:09;;;;;;;79.00;29.30;;;3.70;99.90;;;;;;5021768;28;20025;-76
2020/12/06 11:28:35;;;;;;;83.55;30.73;;;3.70;99.90;;;;;;5022289;28;20037;-75
2020/12/06 11:31:01;;;;;;;83.35;33.17;;;3.70;99.90;;;;;;5004360;28;20022;-75
2020/12/06 11:33:27;;;;;;;75.90;30.17;;;3.60;99.90;;;;;;5022123;28;20033;-74
2020/12/06 11:35:52;;;;;;;83.25;30.05;;;3.70;99.90;;;;;;5024139;28;20109;-74
2020/12/06 11:38:18;;;;;;;86.55;30.67;;;3.60;99.90;;;;;;5002094;28;20142;-74
2020/12/06 11:40:44;;;;;;;85.53;32.40;;;3.70;99.90;;;;;;5023701;28;20035;-74
2020/12/06 11:43:09;;;;;;;83.88;31.50;;;3.70;99.90;;;;;;5022861;28;20060;-74
2020/12/06 11:45:36;;;;;;;86.60;32.10;;;3.80;99.90;;;;;;5023503;28;20026;-75
2020/12/06 11:48:02;;;;;;;107.10;37.67;;;3.80;99.90;;;;;;5015608;28;20055;-74
2020/12/06 11:50:28;;;;;;;97.95;36.85;;;4.00;99.90;;;;;;4998260;28;20714;-75
2020/12/06 11:52:54;;;;;;;89.00;30.95;;;4.00;99.90;;;;;;5017352;28;20033;-74
2020/12/06 11:55:20;;;;;;;87.88;32.15;;;4.00;99.90;;;;;;5017622;28;20053;-74
2020/12/06 11:57:45;;;;;;;89.93;32.75;;;4.00;99.90;;;;;;5018664;28;20064;-74
2020/12/06 12:00:11;;;;;;;87.03;31.17;;;3.80;99.90;;;;;;5012421;28;20128;-75
2020/12/06 12:02:37;;;;;;;82.88;30.60;;;3.80;99.90;;;;;;5017016;28;20028;-74
2020/12/06 12:05:02;;;;;;;89.43;31.50;;;3.80;99.90;;;;;;5021115;28;20406;-74
2020/12/06 12:07:28;;;;;;;80.15;31.20;;;4.00;99.90;;;;;;5003652;28;20060;-74
2020/12/06 12:09:53;;;;;;;79.32;30.80;;;4.10;99.90;;;;;;5011241;28;20040;-74
2020/12/06 12:12:19;;;;;;;77.55;31.00;;;3.90;99.90;;;;;;5020672;28;20052;-73
2020/12/06 12:14:45;;;;;;;89.72;33.00;;;3.80;99.90;;;;;;5018994;28;20515;-73
2020/12/06 12:17:10;;;;;;;87.20;32.22;;;3.70;99.90;;;;;;5019308;28;20481;-73
2020/12/06 12:19:36;;;;;;;82.90;30.80;;;3.70;99.90;;;;;;5012556;28;20492;-73
2020/12/06 12:22:02;;;;;;;83.88;31.75;;;3.70;99.90;;;;;;5019848;28;20037;-73
2020/12/06 12:24:28;;;;;;;79.85;30.35;;;3.70;99.90;;;;;;5020760;28;20018;-73
2020/12/06 12:26:59;;;;;;;94.03;33.60;;;3.70;99.90;;;;;;5013450;28;20037;-73
2020/12/06 12:29:25;;;;;;;88.65;32.47;;;3.80;99.90;;;;;;5020595;28;20087;-75
2020/12/06 12:31:52;;;;;;;97.85;33.60;;;3.70;99.90;;;;;;5012196;28;20154;-73
2020/12/06 12:34:17;;;;;;;89.82;31.92;;;3.60;99.90;;;;;;5019240;28;20080;-73
2020/12/06 12:36:46;;;;;;;90.28;34.15;;;3.70;99.90;;;;;;5018833;28;20548;-75